createdAt,value
2018-12-18T00:00:18.829Z,0.00
2018-12-18T00:01:18.811Z,0.00
2018-12-18T00:02:18.789Z,0.00
2018-12-18T00:03:18.773Z,0.00
2018-12-18T00:04:18.747Z,0.00
2018-12-18T00:05:18.723Z,0.00
2018-12-18T00:06:18.702Z,0.00
2018-12-18T00:07:18.680Z,0.00
2018-12-18T00:08:18.660Z,0.00
2018-12-18T00:09:18.639Z,0.00
2018-12-18T00:10:18.628Z,0.00
2018-12-18T00:11:18.598Z,0.00
2018-12-18T00:12:18.574Z,0.00
2018-12-18T00:13:18.554Z,0.00
2018-12-18T00:14:18.541Z,0.00
2018-12-18T00:15:18.516Z,0.00
2018-12-18T00:16:18.489Z,0.00
2018-12-18T00:17:18.469Z,0.00
2018-12-18T00:18:18.448Z,0.00
2018-12-18T00:19:18.426Z,0.00
2018-12-18T00:20:18.408Z,0.00
2018-12-18T00:21:18.383Z,0.00
2018-12-18T00:22:18.364Z,0.00
2018-12-18T00:23:18.349Z,0.00
2018-12-18T00:24:18.318Z,0.00
2018-12-18T00:25:18.301Z,0.00
2018-12-18T00:26:18.284Z,0.00
2018-12-18T00:27:18.268Z,0.00
2018-12-18T00:28:18.237Z,0.00
2018-12-18T00:29:18.214Z,0.00
2018-12-18T00:30:18.203Z,0.00
2018-12-18T00:31:18.171Z,0.00
2018-12-18T00:32:18.151Z,0.00
2018-12-18T00:33:18.131Z,0.00
2018-12-18T00:34:18.115Z,0.00
2018-12-18T00:35:18.096Z,0.00
2018-12-18T00:36:18.069Z,0.00
2018-12-18T00:37:18.047Z,0.00
2018-12-18T00:38:18.038Z,0.00
2018-12-18T00:39:18.003Z,0.00
2018-12-18T00:40:17.988Z,0.00
2018-12-18T00:41:17.961Z,0.00
2018-12-18T00:42:17.949Z,0.00
2018-12-18T00:43:17.919Z,0.00
2018-12-18T00:44:17.906Z,0.00
2018-12-18T00:45:17.879Z,0.00
2018-12-18T00:46:17.869Z,0.00
2018-12-18T00:47:17.838Z,0.00
2018-12-18T00:48:17.816Z,0.00
2018-12-18T00:49:17.795Z,0.00
2018-12-18T00:50:17.775Z,0.00
2018-12-18T00:51:17.757Z,0.00
2018-12-18T00:52:17.729Z,0.00
2018-12-18T00:53:17.708Z,0.00
2018-12-18T00:54:17.690Z,0.00
2018-12-18T00:55:17.681Z,0.00
2018-12-18T00:56:17.645Z,0.00
2018-12-18T00:57:17.633Z,0.00
2018-12-18T00:58:17.606Z,0.00
2018-12-18T00:59:17.581Z,0.00
2018-12-18T01:00:17.560Z,0.00
2018-12-18T01:01:17.540Z,0.00
2018-12-18T01:02:17.519Z,0.00
2018-12-18T01:03:17.506Z,0.00
2018-12-18T01:04:17.481Z,0.00
2018-12-18T01:05:17.465Z,0.00
2018-12-18T01:06:17.435Z,0.00
2018-12-18T01:07:17.426Z,0.00
2018-12-18T01:08:17.426Z,0.00
2018-12-18T01:09:17.372Z,0.00
2018-12-18T01:10:17.359Z,0.00
2018-12-18T01:11:17.330Z,0.00
2018-12-18T01:12:17.310Z,0.00
2018-12-18T01:13:17.290Z,0.00
2018-12-18T01:14:17.267Z,0.00
2018-12-18T01:15:17.253Z,0.00
2018-12-18T01:16:17.229Z,0.00
2018-12-18T01:17:17.212Z,0.00
2018-12-18T01:18:17.184Z,0.00
2018-12-18T01:19:17.162Z,0.00
2018-12-18T01:20:17.141Z,0.00
2018-12-18T01:21:17.121Z,0.00
2018-12-18T01:22:17.106Z,0.00
2018-12-18T01:23:17.082Z,0.00
2018-12-18T01:24:17.057Z,0.00
2018-12-18T01:25:17.038Z,0.00
2018-12-18T01:26:17.017Z,0.00
2018-12-18T01:27:17.004Z,0.00
2018-12-18T01:28:16.975Z,0.00
2018-12-18T01:29:16.963Z,0.00
2018-12-18T01:30:16.934Z,0.00
2018-12-18T01:31:16.914Z,0.00
2018-12-18T01:32:16.897Z,0.00
2018-12-18T01:33:16.871Z,0.00
2018-12-18T01:34:16.854Z,0.00
2018-12-18T01:35:16.829Z,0.00
2018-12-18T01:36:16.813Z,0.00
2018-12-18T01:37:16.796Z,0.00
2018-12-18T01:38:16.767Z,0.00
2018-12-18T01:39:16.750Z,0.00
2018-12-18T01:40:16.726Z,0.00
2018-12-18T01:41:16.706Z,0.00
2018-12-18T01:42:16.687Z,0.00
2018-12-18T01:43:16.665Z,0.00
2018-12-18T01:44:16.651Z,0.00
2018-12-18T01:45:16.624Z,0.00
2018-12-18T01:46:16.601Z,0.00
2018-12-18T01:47:16.580Z,0.00
2018-12-18T01:48:16.560Z,0.00
2018-12-18T01:49:16.537Z,0.00
2018-12-18T01:50:16.513Z,0.00
2018-12-18T01:51:16.492Z,0.00
2018-12-18T01:52:16.470Z,0.00
2018-12-18T01:53:16.454Z,0.00
2018-12-18T01:54:16.437Z,0.00
2018-12-18T01:55:16.408Z,0.00
2018-12-18T01:56:16.394Z,0.00
2018-12-18T01:57:16.368Z,0.00
2018-12-18T01:58:16.350Z,0.00
2018-12-18T01:59:16.334Z,0.00
2018-12-18T02:00:16.316Z,0.00
2018-12-18T02:01:16.285Z,0.00
2018-12-18T02:02:16.266Z,0.00
2018-12-18T02:03:16.244Z,0.00
2018-12-18T02:04:16.223Z,0.00
2018-12-18T02:05:16.202Z,0.00
2018-12-18T02:06:16.179Z,0.00
2018-12-18T02:07:16.158Z,0.00
2018-12-18T02:08:16.139Z,0.00
2018-12-18T02:09:16.119Z,0.00
2018-12-18T02:10:16.096Z,0.00
2018-12-18T02:11:16.072Z,0.00
2018-12-18T02:12:16.051Z,0.00
2018-12-18T02:13:16.032Z,0.00
2018-12-18T02:14:16.012Z,0.00
2018-12-18T02:15:15.989Z,0.00
2018-12-18T02:16:15.967Z,0.00
2018-12-18T02:17:15.957Z,0.00
2018-12-18T02:18:15.926Z,0.00
2018-12-18T02:19:15.904Z,0.00
2018-12-18T02:20:15.883Z,0.00
2018-12-18T02:21:15.867Z,0.00
2018-12-18T02:22:15.849Z,0.00
2018-12-18T02:23:15.819Z,0.00
2018-12-18T02:24:15.799Z,0.00
2018-12-18T02:25:15.778Z,0.00
2018-12-18T02:26:15.759Z,0.00
2018-12-18T02:27:15.746Z,0.00
2018-12-18T02:28:15.718Z,0.00
2018-12-18T02:29:15.697Z,0.00
2018-12-18T02:30:15.680Z,0.00
2018-12-18T02:31:15.651Z,0.00
2018-12-18T02:32:15.636Z,0.00
2018-12-18T02:33:15.617Z,0.00
2018-12-18T02:34:15.592Z,0.00
2018-12-18T02:35:15.569Z,0.00
2018-12-18T02:36:15.548Z,0.00
2018-12-18T02:37:15.527Z,0.00
2018-12-18T02:38:15.506Z,0.00
2018-12-18T02:39:15.484Z,0.00
2018-12-18T02:40:15.470Z,0.00
2018-12-18T02:41:15.452Z,0.00
2018-12-18T02:42:15.425Z,0.00
2018-12-18T02:43:15.400Z,0.00
2018-12-18T02:44:15.387Z,0.00
2018-12-18T02:45:15.359Z,0.00
2018-12-18T02:46:15.338Z,0.00
2018-12-18T02:47:15.322Z,0.00
2018-12-18T02:48:15.298Z,0.00
2018-12-18T02:49:15.273Z,0.00
2018-12-18T02:50:15.254Z,0.00
2018-12-18T02:51:15.235Z,0.00
2018-12-18T02:52:15.210Z,0.00
2018-12-18T02:53:15.190Z,0.00
2018-12-18T02:54:15.181Z,0.00
2018-12-18T02:55:15.146Z,0.00
2018-12-18T02:56:15.128Z,0.00
2018-12-18T02:57:15.105Z,0.00
2018-12-18T02:58:15.090Z,0.00
2018-12-18T02:59:15.072Z,0.00
2018-12-18T03:00:15.046Z,0.00
2018-12-18T03:01:15.022Z,0.00
2018-12-18T03:02:15.006Z,0.00
2018-12-18T03:03:14.978Z,0.00
2018-12-18T03:04:21.300Z,0.00
2018-12-18T03:05:14.936Z,0.00
2018-12-18T03:06:14.916Z,0.00
2018-12-18T03:07:14.952Z,0.00
2018-12-18T03:08:14.875Z,0.00
2018-12-18T03:09:14.855Z,0.00
2018-12-18T03:10:14.835Z,0.00
2018-12-18T03:11:14.808Z,0.00
2018-12-18T03:12:14.790Z,0.00
2018-12-18T03:13:14.770Z,0.00
2018-12-18T03:14:14.751Z,0.00
2018-12-18T03:15:14.726Z,0.00
2018-12-18T03:16:14.704Z,0.00
2018-12-18T03:17:14.687Z,0.00
2018-12-18T03:18:14.667Z,0.00
2018-12-18T03:19:14.649Z,0.00
2018-12-18T03:20:14.620Z,0.00
2018-12-18T03:21:14.600Z,0.00
2018-12-18T03:22:14.586Z,0.00
2018-12-18T03:23:14.569Z,0.00
2018-12-18T03:24:14.538Z,0.00
2018-12-18T03:25:14.519Z,0.00
2018-12-18T03:26:14.497Z,0.00
2018-12-18T03:27:14.483Z,0.00
2018-12-18T03:28:14.454Z,0.00
2018-12-18T03:29:14.435Z,0.00
2018-12-18T03:30:14.414Z,0.00
2018-12-18T03:31:14.391Z,0.00
2018-12-18T03:32:14.386Z,0.00
2018-12-18T03:33:14.352Z,0.00
2018-12-18T03:34:14.327Z,0.00
2018-12-18T03:35:14.307Z,0.00
2018-12-18T03:36:14.285Z,0.00
2018-12-18T03:37:14.265Z,0.00
2018-12-18T03:38:14.241Z,0.00
2018-12-18T03:39:14.221Z,0.00
2018-12-18T03:40:14.199Z,0.00
2018-12-18T03:41:14.182Z,0.00
2018-12-18T03:42:14.164Z,0.00
2018-12-18T03:43:14.138Z,0.00
2018-12-18T03:44:14.118Z,0.00
2018-12-18T03:45:14.100Z,0.00
2018-12-18T03:46:14.073Z,0.00
2018-12-18T03:47:14.049Z,0.00
2018-12-18T03:48:14.030Z,0.00
2018-12-18T03:49:14.026Z,0.00
2018-12-18T03:50:13.989Z,0.00
2018-12-18T03:51:13.965Z,0.00
2018-12-18T03:52:13.947Z,0.00
2018-12-18T03:53:13.929Z,0.00
2018-12-18T03:54:13.905Z,0.00
2018-12-18T03:55:13.896Z,0.00
2018-12-18T03:56:13.864Z,0.00
2018-12-18T03:57:13.840Z,0.00
2018-12-18T03:58:13.822Z,0.00
2018-12-18T03:59:13.806Z,0.00
2018-12-18T04:00:13.779Z,0.00
2018-12-18T04:01:13.761Z,0.00
2018-12-18T04:02:13.734Z,0.00
2018-12-18T04:03:13.713Z,0.00
2018-12-18T04:04:13.691Z,0.00
2018-12-18T04:05:13.671Z,0.00
2018-12-18T04:06:13.652Z,0.00
2018-12-18T04:07:13.629Z,0.00
2018-12-18T04:08:13.611Z,0.00
2018-12-18T04:09:13.594Z,0.00
2018-12-18T04:10:13.566Z,0.00
2018-12-18T04:11:13.566Z,0.00
2018-12-18T04:12:13.527Z,0.00
2018-12-18T04:13:13.504Z,0.00
2018-12-18T04:14:13.481Z,0.00
2018-12-18T04:15:13.463Z,0.00
2018-12-18T04:16:13.440Z,0.00
2018-12-18T04:17:13.421Z,0.00
2018-12-18T04:18:13.396Z,0.00
2018-12-18T04:19:13.376Z,0.00
2018-12-18T04:20:13.356Z,0.00
2018-12-18T04:21:13.336Z,0.00
2018-12-18T04:22:13.311Z,0.00
2018-12-18T04:23:13.291Z,0.00
2018-12-18T04:24:13.268Z,0.00
2018-12-18T04:25:13.246Z,0.00
2018-12-18T04:26:13.228Z,0.00
2018-12-18T04:27:13.206Z,0.00
2018-12-18T04:28:13.182Z,0.00
2018-12-18T04:29:13.167Z,0.00
2018-12-18T04:30:13.145Z,0.00
2018-12-18T04:31:13.126Z,0.00
2018-12-18T04:32:13.099Z,0.00
2018-12-18T04:33:13.078Z,0.00
2018-12-18T04:34:13.057Z,0.00
2018-12-18T04:35:13.039Z,0.00
2018-12-18T04:36:13.014Z,0.00
2018-12-18T04:37:12.994Z,0.00
2018-12-18T04:38:12.975Z,0.00
2018-12-18T04:39:12.950Z,0.00
2018-12-18T04:40:12.930Z,0.00
2018-12-18T04:41:12.916Z,0.00
2018-12-18T04:42:12.886Z,0.00
2018-12-18T04:43:12.874Z,0.00
2018-12-18T04:44:12.860Z,0.00
2018-12-18T04:45:12.826Z,0.00
2018-12-18T04:46:12.806Z,0.00
2018-12-18T04:47:12.783Z,0.00
2018-12-18T04:48:12.766Z,0.00
2018-12-18T04:49:12.739Z,0.00
2018-12-18T04:50:12.719Z,0.00
2018-12-18T04:51:12.697Z,0.00
2018-12-18T04:52:12.677Z,0.00
2018-12-18T04:53:12.654Z,0.00
2018-12-18T04:54:12.639Z,0.00
2018-12-18T04:55:12.613Z,0.00
2018-12-18T04:56:12.596Z,0.00
2018-12-18T04:57:12.570Z,0.00
2018-12-18T04:58:12.551Z,0.00
2018-12-18T04:59:12.528Z,0.00
2018-12-18T05:00:12.510Z,0.00
2018-12-18T05:01:12.487Z,0.00
2018-12-18T05:02:12.528Z,0.00
2018-12-18T05:03:12.445Z,0.00
2018-12-18T05:04:12.428Z,0.00
2018-12-18T05:05:12.407Z,0.00
2018-12-18T05:06:12.384Z,0.00
2018-12-18T05:07:12.363Z,0.00
2018-12-18T05:08:12.339Z,0.00
2018-12-18T05:09:12.328Z,0.00
2018-12-18T05:10:12.304Z,0.00
2018-12-18T05:11:12.275Z,0.00
2018-12-18T05:12:12.256Z,0.00
2018-12-18T05:13:12.237Z,0.00
2018-12-18T05:14:12.211Z,0.00
2018-12-18T05:15:12.194Z,0.00
2018-12-18T05:16:12.170Z,0.00
2018-12-18T05:17:12.149Z,0.00
2018-12-18T05:18:12.130Z,0.00
2018-12-18T05:19:12.110Z,0.00
2018-12-18T05:20:12.602Z,0.00
2018-12-18T05:21:12.069Z,0.00
2018-12-18T05:22:12.052Z,0.00
2018-12-18T05:23:12.025Z,0.00
2018-12-18T05:24:12.013Z,0.00
2018-12-18T05:25:11.994Z,0.00
2018-12-18T05:26:11.961Z,0.00
2018-12-18T05:27:11.943Z,0.00
2018-12-18T05:28:11.918Z,0.00
2018-12-18T05:29:11.897Z,0.00
2018-12-18T05:30:11.884Z,0.00
2018-12-18T05:31:11.865Z,0.00
2018-12-18T05:32:11.832Z,0.00
2018-12-18T05:33:11.815Z,0.00
2018-12-18T05:34:11.794Z,0.00
2018-12-18T05:35:11.773Z,0.00
2018-12-18T05:36:11.750Z,0.00
2018-12-18T05:37:11.736Z,0.00
2018-12-18T05:38:11.706Z,0.00
2018-12-18T05:39:11.690Z,0.00
2018-12-18T05:40:11.662Z,0.00
2018-12-18T05:41:11.640Z,0.00
2018-12-18T05:42:11.622Z,0.00
2018-12-18T05:43:11.598Z,0.00
2018-12-18T05:44:11.576Z,0.00
2018-12-18T05:45:11.557Z,0.00
2018-12-18T05:46:11.541Z,0.00
2018-12-18T05:47:11.513Z,0.00
2018-12-18T05:48:11.501Z,0.00
2018-12-18T05:49:11.472Z,0.00
2018-12-18T05:50:11.454Z,0.00
2018-12-18T05:51:11.432Z,0.00
2018-12-18T05:52:11.412Z,0.00
2018-12-18T05:53:11.390Z,0.00
2018-12-18T05:54:11.377Z,0.00
2018-12-18T05:55:11.346Z,0.00
2018-12-18T05:56:11.326Z,0.00
2018-12-18T05:57:11.303Z,0.00
2018-12-18T05:58:11.283Z,0.00
2018-12-18T05:59:11.260Z,0.00
2018-12-18T06:00:11.239Z,0.00
2018-12-18T06:01:11.223Z,0.00
2018-12-18T06:02:11.211Z,0.00
2018-12-18T06:03:11.183Z,0.00
2018-12-18T06:04:11.157Z,0.00
2018-12-18T06:05:11.137Z,0.00
2018-12-18T06:06:11.125Z,0.00
2018-12-18T06:07:11.092Z,0.00
2018-12-18T06:08:11.074Z,0.00
2018-12-18T06:09:11.056Z,0.00
2018-12-18T06:10:11.033Z,0.00
2018-12-18T06:11:11.010Z,0.00
2018-12-18T06:12:10.990Z,0.00
2018-12-18T06:13:10.969Z,0.00
2018-12-18T06:14:10.962Z,0.00
2018-12-18T06:15:10.928Z,0.00
2018-12-18T06:16:10.907Z,0.00
2018-12-18T06:17:10.887Z,0.00
2018-12-18T06:18:10.874Z,0.00
2018-12-18T06:19:10.845Z,0.00
2018-12-18T06:20:10.823Z,0.00
2018-12-18T06:21:10.810Z,0.00
2018-12-18T06:22:10.784Z,0.00
2018-12-18T06:23:10.765Z,0.00
2018-12-18T06:24:10.740Z,0.00
2018-12-18T06:25:10.719Z,0.00
2018-12-18T06:26:10.699Z,0.00
2018-12-18T06:27:10.676Z,0.00
2018-12-18T06:28:10.653Z,0.00
2018-12-18T06:29:10.636Z,0.00
2018-12-18T06:30:10.611Z,0.00
2018-12-18T06:31:10.600Z,0.00
2018-12-18T06:32:10.578Z,0.00
2018-12-18T06:33:10.550Z,0.00
2018-12-18T06:34:10.528Z,0.00
2018-12-18T06:35:10.688Z,0.00
2018-12-18T06:36:10.486Z,0.00
2018-12-18T06:37:10.465Z,0.00
2018-12-18T06:38:10.453Z,0.00
2018-12-18T06:39:10.427Z,0.00
2018-12-18T06:40:10.404Z,0.00
2018-12-18T06:41:10.387Z,0.00
2018-12-18T06:42:10.362Z,0.00
2018-12-18T06:43:10.341Z,0.00
2018-12-18T06:44:10.329Z,0.00
2018-12-18T06:45:10.302Z,0.00
2018-12-18T06:46:10.279Z,0.00
2018-12-18T06:47:10.256Z,0.00
2018-12-18T06:48:10.242Z,0.00
2018-12-18T06:49:10.220Z,0.00
2018-12-18T06:50:10.207Z,0.00
2018-12-18T06:51:10.179Z,0.00
2018-12-18T06:52:10.153Z,0.00
2018-12-18T06:53:10.132Z,0.00
2018-12-18T06:54:10.113Z,0.00
2018-12-18T06:55:10.090Z,0.00
2018-12-18T06:56:10.069Z,0.00
2018-12-18T06:57:10.051Z,0.00
2018-12-18T06:58:10.029Z,0.00
2018-12-18T06:59:10.007Z,0.00
2018-12-18T07:00:09.994Z,0.00
2018-12-18T07:01:09.965Z,0.00
2018-12-18T07:02:09.947Z,0.00
2018-12-18T07:03:09.922Z,0.00
2018-12-18T07:04:09.913Z,0.00
2018-12-18T07:05:09.880Z,0.00
2018-12-18T07:06:09.862Z,0.00
2018-12-18T07:07:09.838Z,0.00
2018-12-18T07:08:09.816Z,0.00
2018-12-18T07:09:09.803Z,0.00
2018-12-18T07:10:09.778Z,0.00
2018-12-18T07:11:09.755Z,0.00
2018-12-18T07:12:09.735Z,0.00
2018-12-18T07:13:09.723Z,0.00
2018-12-18T07:14:09.695Z,0.00
2018-12-18T07:15:09.672Z,0.00
2018-12-18T07:16:09.662Z,0.00
2018-12-18T07:17:09.639Z,0.00
2018-12-18T07:18:09.612Z,0.00
2018-12-18T07:19:09.590Z,0.00
2018-12-18T07:20:09.573Z,0.00
2018-12-18T07:21:09.548Z,0.00
2018-12-18T07:22:09.527Z,0.00
2018-12-18T07:23:09.506Z,0.00
2018-12-18T07:24:14.037Z,0.00
2018-12-18T07:25:09.464Z,0.00
2018-12-18T07:26:09.443Z,0.00
2018-12-18T07:27:09.428Z,0.00
2018-12-18T07:28:09.398Z,0.00
2018-12-18T07:29:09.379Z,0.00
2018-12-18T07:30:09.354Z,0.00
2018-12-18T07:31:09.336Z,0.00
2018-12-18T07:32:09.314Z,0.00
2018-12-18T07:33:09.290Z,0.00
2018-12-18T07:34:09.267Z,0.00
2018-12-18T07:35:09.246Z,0.00
2018-12-18T07:36:09.225Z,0.00
2018-12-18T07:37:09.209Z,0.00
2018-12-18T07:38:09.187Z,0.00
2018-12-18T07:39:09.166Z,0.00
2018-12-18T07:40:09.139Z,0.00
2018-12-18T07:41:09.119Z,0.00
2018-12-18T07:42:09.097Z,0.00
2018-12-18T07:43:09.074Z,0.00
2018-12-18T07:44:09.054Z,0.00
2018-12-18T07:45:09.033Z,0.00
2018-12-18T07:46:09.012Z,0.00
2018-12-18T07:47:08.987Z,0.00
2018-12-18T07:48:08.968Z,5.63
2018-12-18T07:49:08.947Z,5.63
2018-12-18T07:50:08.925Z,5.63
2018-12-18T07:51:08.903Z,5.63
2018-12-18T07:52:08.880Z,5.63
2018-12-18T07:53:08.861Z,5.63
2018-12-18T07:54:08.840Z,11.25
2018-12-18T07:55:08.815Z,11.25
2018-12-18T07:56:08.795Z,11.25
2018-12-18T07:57:08.779Z,16.88
2018-12-18T07:58:08.753Z,16.88
2018-12-18T07:59:08.737Z,16.88
2018-12-18T08:00:08.714Z,22.50
2018-12-18T08:01:08.689Z,22.50
2018-12-18T08:02:08.669Z,28.13
2018-12-18T08:03:08.647Z,28.13
2018-12-18T08:04:08.623Z,33.75
2018-12-18T08:05:08.604Z,33.75
2018-12-18T08:06:08.585Z,33.75
2018-12-18T08:07:08.561Z,39.38
2018-12-18T08:08:08.540Z,39.38
2018-12-18T08:09:08.518Z,45.00
2018-12-18T08:10:08.495Z,45.00
2018-12-18T08:11:08.481Z,50.63
2018-12-18T08:12:08.455Z,50.63
2018-12-18T08:13:08.432Z,50.63
2018-12-18T08:14:08.408Z,50.63
2018-12-18T08:15:08.386Z,56.25
2018-12-18T08:16:08.368Z,56.25
2018-12-18T08:17:08.343Z,61.88
2018-12-18T08:18:08.327Z,61.88
2018-12-18T08:19:08.307Z,67.50
2018-12-18T08:20:08.282Z,73.13
2018-12-18T08:21:08.260Z,78.75
2018-12-18T08:22:08.241Z,95.63
2018-12-18T08:23:08.215Z,123.75
2018-12-18T08:24:08.194Z,151.88
2018-12-18T08:25:08.173Z,174.38
2018-12-18T08:26:08.158Z,151.88
2018-12-18T08:27:08.195Z,151.88
2018-12-18T08:28:08.114Z,174.38
2018-12-18T08:29:08.090Z,191.25
2018-12-18T08:30:08.071Z,191.25
2018-12-18T08:31:08.059Z,157.50
2018-12-18T08:32:09.536Z,146.25
2018-12-18T08:33:08.013Z,146.25
2018-12-18T08:34:07.989Z,180.00
2018-12-18T08:35:07.970Z,196.88
2018-12-18T08:36:07.954Z,196.88
2018-12-18T08:37:07.933Z,213.75
2018-12-18T08:38:07.911Z,213.75
2018-12-18T08:39:07.896Z,208.13
2018-12-18T08:40:07.871Z,241.88
2018-12-18T08:41:07.851Z,292.50
2018-12-18T08:42:07.835Z,348.75
2018-12-18T08:43:07.815Z,393.75
2018-12-18T08:44:07.793Z,405.00
2018-12-18T08:45:07.777Z,399.38
2018-12-18T08:46:10.402Z,421.88
2018-12-18T08:47:07.742Z,427.50
2018-12-18T08:48:07.727Z,433.13
2018-12-18T08:49:07.704Z,450.00
2018-12-18T08:50:07.687Z,483.75
2018-12-18T08:51:07.671Z,511.88
2018-12-18T08:52:07.653Z,511.88
2018-12-18T08:53:07.637Z,489.38
2018-12-18T08:54:07.630Z,500.63
2018-12-18T08:55:07.606Z,489.38
2018-12-18T08:56:07.592Z,450.00
2018-12-18T08:57:07.577Z,450.00
2018-12-18T08:58:07.561Z,438.75
2018-12-18T08:59:07.547Z,455.63
2018-12-18T09:00:07.536Z,489.38
2018-12-18T09:01:07.521Z,461.25
2018-12-18T09:02:07.506Z,478.13
2018-12-18T09:03:07.506Z,495.00
2018-12-18T09:04:07.476Z,506.25
2018-12-18T09:05:07.464Z,511.88
2018-12-18T09:06:07.446Z,551.25
2018-12-18T09:07:07.453Z,607.50
2018-12-18T09:08:07.423Z,596.25
2018-12-18T09:09:07.417Z,624.38
2018-12-18T09:10:07.394Z,461.25
2018-12-18T09:11:07.381Z,315.00
2018-12-18T09:12:07.370Z,286.88
2018-12-18T09:13:07.356Z,286.88
2018-12-18T09:14:07.348Z,286.88
2018-12-18T09:15:07.334Z,286.88
2018-12-18T09:16:07.327Z,286.88
2018-12-18T09:17:07.319Z,292.50
2018-12-18T09:18:07.304Z,292.50
2018-12-18T09:19:07.289Z,303.75
2018-12-18T09:20:07.274Z,309.38
2018-12-18T09:21:07.270Z,331.88
2018-12-18T09:22:07.260Z,348.75
2018-12-18T09:23:07.241Z,376.88
2018-12-18T09:24:07.234Z,405.00
2018-12-18T09:25:07.228Z,433.13
2018-12-18T09:26:07.208Z,455.63
2018-12-18T09:27:07.196Z,523.13
2018-12-18T09:28:07.183Z,528.75
2018-12-18T09:29:07.174Z,573.75
2018-12-18T09:30:07.164Z,607.50
2018-12-18T09:31:07.153Z,613.13
2018-12-18T09:32:07.140Z,596.25
2018-12-18T09:33:07.133Z,579.38
2018-12-18T09:34:07.125Z,596.25
2018-12-18T09:35:07.129Z,630.00
2018-12-18T09:36:07.105Z,630.00
2018-12-18T09:37:07.092Z,613.13
2018-12-18T09:38:07.082Z,641.25
2018-12-18T09:39:07.072Z,646.88
2018-12-18T09:40:07.066Z,618.75
2018-12-18T09:41:07.049Z,641.25
2018-12-18T09:42:07.037Z,635.63
2018-12-18T09:43:07.033Z,618.75
2018-12-18T09:44:07.020Z,630.00
2018-12-18T09:45:07.020Z,607.50
2018-12-18T09:46:06.998Z,613.13
2018-12-18T09:47:06.989Z,607.50
2018-12-18T09:48:06.989Z,590.63
2018-12-18T09:49:06.970Z,607.50
2018-12-18T09:50:06.964Z,596.25
2018-12-18T09:51:06.947Z,523.13
2018-12-18T09:52:06.939Z,489.38
2018-12-18T09:53:06.926Z,500.63
2018-12-18T09:54:06.915Z,461.25
2018-12-18T09:55:08.077Z,427.50
2018-12-18T09:56:06.893Z,506.25
2018-12-18T09:57:06.882Z,534.38
2018-12-18T09:58:06.874Z,495.00
2018-12-18T09:59:06.864Z,545.63
2018-12-18T10:00:06.857Z,540.00
2018-12-18T10:01:06.848Z,382.50
2018-12-18T10:02:06.832Z,292.50
2018-12-18T10:03:06.822Z,230.63
2018-12-18T10:04:06.808Z,241.88
2018-12-18T10:05:06.794Z,315.00
2018-12-18T10:06:06.783Z,399.38
2018-12-18T10:07:06.775Z,483.75
2018-12-18T10:08:06.758Z,500.63
2018-12-18T10:09:09.702Z,495.00
2018-12-18T10:10:06.744Z,517.50
2018-12-18T10:11:06.725Z,534.38
2018-12-18T10:12:06.713Z,511.88
2018-12-18T10:13:06.702Z,461.25
2018-12-18T10:14:06.692Z,483.75
2018-12-18T10:15:06.677Z,438.75
2018-12-18T10:16:06.666Z,455.63
2018-12-18T10:17:06.656Z,455.63
2018-12-18T10:18:06.644Z,410.63
2018-12-18T10:19:06.631Z,393.75
2018-12-18T10:20:06.619Z,393.75
2018-12-18T10:21:06.606Z,393.75
2018-12-18T10:22:06.608Z,360.00
2018-12-18T10:23:06.582Z,399.38
2018-12-18T10:24:06.570Z,433.13
2018-12-18T10:25:06.559Z,405.00
2018-12-18T10:26:06.553Z,405.00
2018-12-18T10:27:06.535Z,405.00
2018-12-18T10:28:06.520Z,410.63
2018-12-18T10:29:06.509Z,371.25
2018-12-18T10:30:06.498Z,382.50
2018-12-18T10:31:06.487Z,405.00
2018-12-18T10:32:06.473Z,399.38
2018-12-18T10:33:06.466Z,393.75
2018-12-18T10:34:06.453Z,382.50
2018-12-18T10:35:06.446Z,376.88
2018-12-18T10:36:06.430Z,371.25
2018-12-18T10:37:06.421Z,348.75
2018-12-18T10:38:06.409Z,309.38
2018-12-18T10:39:06.395Z,275.63
2018-12-18T10:40:06.383Z,320.63
2018-12-18T10:41:06.369Z,303.75
2018-12-18T10:42:06.362Z,320.63
2018-12-18T10:43:06.349Z,225.00
2018-12-18T10:44:06.337Z,219.38
2018-12-18T10:45:06.324Z,286.88
2018-12-18T10:46:06.309Z,303.75
2018-12-18T10:47:06.308Z,315.00
2018-12-18T10:48:06.293Z,303.75
2018-12-18T10:49:06.277Z,309.38
2018-12-18T10:50:06.266Z,309.38
2018-12-18T10:51:06.252Z,303.75
2018-12-18T10:52:06.244Z,298.13
2018-12-18T10:53:06.233Z,292.50
2018-12-18T10:54:06.214Z,292.50
2018-12-18T10:55:06.204Z,298.13
2018-12-18T10:56:06.199Z,298.13
2018-12-18T10:57:06.186Z,286.88
2018-12-18T10:58:06.169Z,281.25
2018-12-18T10:59:06.156Z,281.25
2018-12-18T11:00:06.143Z,258.75
2018-12-18T11:01:06.133Z,247.50
2018-12-18T11:02:06.123Z,264.38
2018-12-18T11:03:06.114Z,247.50
2018-12-18T11:04:06.107Z,236.25
2018-12-18T11:05:06.082Z,230.63
2018-12-18T11:06:09.767Z,236.25
2018-12-18T11:07:06.062Z,241.88
2018-12-18T11:08:06.050Z,247.50
2018-12-18T11:09:06.038Z,247.50
2018-12-18T11:10:06.017Z,236.25
2018-12-18T11:11:06.013Z,225.00
2018-12-18T11:12:05.991Z,213.75
2018-12-18T11:13:05.981Z,208.13
2018-12-18T11:14:05.982Z,196.88
2018-12-18T11:15:05.959Z,196.88
2018-12-18T11:16:05.947Z,202.50
2018-12-18T11:17:05.933Z,208.13
2018-12-18T11:18:05.920Z,196.88
2018-12-18T11:19:05.902Z,185.63
2018-12-18T11:20:05.896Z,174.38
2018-12-18T11:21:05.877Z,157.50
2018-12-18T11:22:05.864Z,168.75
2018-12-18T11:23:05.848Z,163.13
2018-12-18T11:24:05.834Z,157.50
2018-12-18T11:25:05.824Z,163.13
2018-12-18T11:26:05.807Z,151.88
2018-12-18T11:27:05.795Z,157.50
2018-12-18T11:28:05.777Z,151.88
2018-12-18T11:29:05.771Z,151.88
2018-12-18T11:30:05.749Z,146.25
2018-12-18T11:31:05.732Z,140.63
2018-12-18T11:32:05.719Z,140.63
2018-12-18T11:33:05.703Z,151.88
2018-12-18T11:34:05.686Z,157.50
2018-12-18T11:35:05.674Z,151.88
2018-12-18T11:36:05.659Z,157.50
2018-12-18T11:37:05.643Z,163.13
2018-12-18T11:38:05.638Z,163.13
2018-12-18T11:39:05.610Z,157.50
2018-12-18T11:40:05.596Z,163.13
2018-12-18T11:41:05.580Z,163.13
2018-12-18T11:42:05.567Z,168.75
2018-12-18T11:43:05.551Z,168.75
2018-12-18T11:44:05.534Z,163.13
2018-12-18T11:45:05.518Z,163.13
2018-12-18T11:46:05.503Z,157.50
2018-12-18T11:47:05.489Z,157.50
2018-12-18T11:48:05.476Z,151.88
2018-12-18T11:49:05.455Z,146.25
2018-12-18T11:50:05.441Z,140.63
2018-12-18T11:51:05.426Z,140.63
2018-12-18T11:52:05.409Z,140.63
2018-12-18T11:53:05.404Z,135.00
2018-12-18T11:54:05.387Z,135.00
2018-12-18T11:55:05.367Z,135.00
2018-12-18T11:56:05.350Z,135.00
2018-12-18T11:57:05.332Z,135.00
2018-12-18T11:58:05.313Z,129.38
2018-12-18T11:59:05.295Z,123.75
2018-12-18T12:00:05.279Z,118.13
2018-12-18T12:01:05.272Z,112.50
2018-12-18T12:02:05.252Z,112.50
2018-12-18T12:03:05.234Z,112.50
2018-12-18T12:04:05.219Z,112.50
2018-12-18T12:05:05.207Z,106.88
2018-12-18T12:06:05.185Z,106.88
2018-12-18T12:07:05.163Z,101.25
2018-12-18T12:08:05.153Z,95.63
2018-12-18T12:09:05.130Z,95.63
2018-12-18T12:10:05.118Z,95.63
2018-12-18T12:11:05.101Z,95.63
2018-12-18T12:12:05.083Z,95.63
2018-12-18T12:13:05.067Z,90.00
2018-12-18T12:14:05.044Z,90.00
2018-12-18T12:15:05.030Z,90.00
2018-12-18T12:16:05.010Z,90.00
2018-12-18T12:17:05.005Z,84.38
2018-12-18T12:18:04.981Z,84.38
2018-12-18T12:19:04.962Z,84.38
2018-12-18T12:20:04.945Z,84.38
2018-12-18T12:21:04.928Z,84.38
2018-12-18T12:22:04.905Z,84.38
2018-12-18T12:23:04.895Z,78.75
2018-12-18T12:24:04.874Z,78.75
2018-12-18T12:25:04.854Z,78.75
2018-12-18T12:26:04.835Z,78.75
2018-12-18T12:27:04.820Z,84.38
2018-12-18T12:28:04.810Z,84.38
2018-12-18T12:29:04.792Z,84.38
2018-12-18T12:30:04.765Z,84.38
2018-12-18T12:31:04.746Z,84.38
2018-12-18T12:32:04.730Z,84.38
2018-12-18T12:33:04.711Z,84.38
2018-12-18T12:34:04.695Z,84.38
2018-12-18T12:35:04.675Z,84.38
2018-12-18T12:36:04.657Z,78.75
2018-12-18T12:37:04.639Z,78.75
2018-12-18T12:38:04.621Z,78.75
2018-12-18T12:39:04.603Z,78.75
2018-12-18T12:40:04.589Z,78.75
2018-12-18T12:41:04.572Z,78.75
2018-12-18T12:42:04.548Z,78.75
2018-12-18T12:43:04.526Z,78.75
2018-12-18T12:44:04.524Z,78.75
2018-12-18T12:45:04.489Z,78.75
2018-12-18T12:46:04.475Z,78.75
2018-12-18T12:47:04.452Z,78.75
2018-12-18T12:48:04.436Z,78.75
2018-12-18T12:49:04.433Z,78.75
2018-12-18T12:50:04.400Z,78.75
2018-12-18T12:51:04.378Z,78.75
2018-12-18T12:52:04.363Z,78.75
2018-12-18T12:53:04.345Z,78.75
2018-12-18T12:54:04.325Z,78.75
2018-12-18T12:55:04.316Z,73.13
2018-12-18T12:56:04.289Z,73.13
2018-12-18T12:57:04.299Z,73.13
2018-12-18T12:58:04.252Z,73.13
2018-12-18T12:59:04.235Z,73.13
2018-12-18T13:00:04.217Z,73.13